Time;durP1;ratioP1;P1;durP2;ratioP2;P2;SDS_P1;SDS_P2;PMS_P1;PMS_P2;Temp;Humidity;BMP_temperature;BMP_pressure;BME280_temperature;BME280_humidity;BME280_pressure;Samples;Min_cycle;Max_cycle;Signal;HPM_P1;HPM_P2
2023/09/12 00:01:59;;;;;;;;;8.25;5.25;;;;;24.50;53.89;100867.06;5038861;28;45236;-41
2023/09/12 00:04:24;;;;;;;;;8.50;7.00;;;;;24.52;54.32;100882.06;5038534;28;45325;-40
2023/09/12 00:06:50;;;;;;;;;6.00;5.75;;;;;24.50;54.58;100878.75;5038516;28;46068;-38
2023/09/12 00:09:15;;;;;;;;;7.00;7.00;;;;;24.49;54.69;100882.56;5039101;28;45876;-41
2023/09/12 00:11:40;;;;;;;;;7.25;7.25;;;;;24.48;54.63;100882.78;5038970;28;45403;-39
2023/09/12 00:14:07;;;;;;;;;7.00;7.00;;;;;24.46;54.42;100882.19;5038750;28;45227;-39
2023/09/12 00:16:33;;;;;;;;;10.40;8.00;;;;;24.42;54.94;100884.53;5038424;28;45386;-40
2023/09/12 00:18:58;;;;;;;;;8.25;6.75;;;;;24.38;54.64;100875.19;5038373;28;45438;-40
2023/09/12 00:21:23;;;;;;;;;1.75;1.75;;;;;24.39;54.63;100874.97;5038472;28;45324;-41
2023/09/12 00:23:49;;;;;;;;;8.00;8.00;;;;;24.37;55.32;100877.09;5038874;28;45470;-40
2023/09/12 00:26:14;;;;;;;;;7.50;7.25;;;;;24.34;55.16;100873.97;5038323;28;46191;-39
2023/09/12 00:28:40;;;;;;;;;11.00;7.00;;;;;24.31;55.37;100869.00;5038181;28;45295;-41
2023/09/12 00:31:05;;;;;;;;;7.50;6.00;;;;;24.30;55.16;100879.06;5038438;28;45467;-41
2023/09/12 00:33:31;;;;;;;;;4.75;4.75;;;;;24.29;55.19;100879.31;5038463;28;45478;-40
2023/09/12 00:35:56;;;;;;;;;6.25;6.25;;;;;24.27;54.98;100881.41;5036761;28;47192;-41
2023/09/12 00:38:21;;;;;;;;;9.25;7.00;;;;;24.19;55.18;100868.16;5037961;28;51485;-42
2023/09/12 00:40:47;;;;;;;;;5.50;5.50;;;;;24.23;55.11;100877.50;5037230;28;45490;-40
2023/09/12 00:43:12;;;;;;;;;7.00;7.00;;;;;24.24;55.80;100881.91;5037334;28;45442;-40
2023/09/12 00:45:38;;;;;;;;;10.00;9.25;;;;;24.09;55.30;100864.13;5038060;28;45546;-42
2023/09/12 00:48:05;;;;;;;;;6.50;6.50;;;;;24.13;55.46;100875.38;5037906;28;45329;-40
2023/09/12 00:50:32;;;;;;;;;8.80;7.00;;;;;24.09;56.19;100875.00;5037965;28;45652;-40
2023/09/12 00:52:59;;;;;;;;;8.20;7.00;;;;;24.08;55.79;100873.34;5038463;28;45314;-39
2023/09/12 00:55:24;;;;;;;;;7.20;6.20;;;;;24.06;56.12;100875.47;5037904;28;45368;-39
2023/09/12 00:57:51;;;;;;;;;8.25;6.75;;;;;24.01;56.35;100869.91;5038039;28;45416;-38
2023/09/12 01:00:17;;;;;;;;;8.00;8.00;;;;;24.02;56.53;100882.44;5038000;28;45339;-41
2023/09/12 01:02:45;;;;;;;;;9.75;8.25;;;;;24.02;56.12;100881.59;5038197;28;45379;-38
2023/09/12 01:05:13;;;;;;;;;7.80;7.80;;;;;24.01;56.64;100872.59;5038773;28;46389;-40
2023/09/12 01:07:39;;;;;;;;;7.60;7.60;;;;;23.95;56.43;100870.84;5039131;28;45346;-40
2023/09/12 01:10:08;;;;;;;;;8.20;7.40;;;;;23.94;56.56;100876.50;5040462;28;45272;-42
2023/09/12 01:12:33;;;;;;;;;7.20;6.80;;;;;23.81;56.87;100858.53;5040398;28;45399;-40
2023/09/12 01:14:59;;;;;;;;;9.50;9.00;;;;;23.92;56.95;100881.34;5038559;28;46261;-40
2023/09/12 01:17:25;;;;;;;;;9.50;8.50;;;;;23.81;56.54;100863.94;5037547;28;45352;-40
2023/09/12 01:19:51;;;;;;;;;13.40;10.80;;;;;23.80;57.20;100873.13;5037567;28;45394;-41
2023/09/12 01:22:57;;;;;;;;;9.40;9.20;;;;;23.76;56.92;100869.22;5037796;28;45541;-40
2023/09/12 01:26:00;;;;;;;;;11.00;7.40;;;;;23.73;57.19;100865.09;5037501;28;45463;-40
2023/09/12 01:28:34;;;;;;;;;8.00;8.00;;;;;23.68;57.61;100851.34;5037481;28;45384;-40
2023/09/12 01:31:02;;;;;;;;;8.00;8.00;;;;;23.65;57.93;100851.84;5037545;28;45459;-40
2023/09/12 01:33:28;;;;;;;;;6.75;6.75;;;;;23.63;57.47;100854.75;5036214;28;45353;-40
2023/09/12 01:35:54;;;;;;;;;7.50;7.25;;;;;23.62;58.14;100858.53;5037022;28;46066;-40
2023/09/12 01:38:20;;;;;;;;;9.75;9.75;;;;;23.52;58.01;100858.25;5037386;28;45448;-40
2023/09/12 01:40:49;;;;;;;;;15.80;10.20;;;;;23.60;57.79;100876.13;5037412;28;45599;-39
2023/09/12 01:43:20;;;;;;;;;14.50;10.75;;;;;23.59;58.48;100888.03;5037660;28;45355;-40
2023/09/12 01:45:49;;;;;;;;;12.00;10.40;;;;;23.41;58.24;100872.59;5037118;28;45251;-40
2023/09/12 01:48:19;;;;;;;;;13.80;9.60;;;;;23.48;58.13;100888.81;5037102;28;45424;-40
2023/09/12 01:50:45;;;;;;;;;8.40;8.40;;;;;23.41;57.31;100884.28;5037423;28;45394;-39
2023/09/12 01:53:11;;;;;;;;;8.75;8.75;;;;;23.37;58.76;100877.63;5037370;28;45360;-39
2023/09/12 01:55:37;;;;;;;;;10.00;8.00;;;;;23.34;58.63;100874.56;5036218;28;45729;-39
2023/09/12 01:58:03;;;;;;;;;9.40;9.40;;;;;23.28;58.92;100876.31;5036224;28;45709;-39
2023/09/12 02:00:29;;;;;;;;;10.75;9.50;;;;;23.24;58.83;100875.09;5036782;28;45429;-41
2023/09/12 02:02:55;;;;;;;;;11.25;10.75;;;;;23.18;59.01;100877.91;5037215;28;45274;-40
2023/09/12 02:05:22;;;;;;;;;8.00;8.00;;;;;23.19;59.61;100882.28;5036816;28;46150;-39
2023/09/12 02:07:48;;;;;;;;;17.60;11.80;;;;;23.20;59.42;100884.75;5036701;28;45335;-40
2023/09/12 02:10:14;;;;;;;;;9.80;9.00;;;;;23.22;59.79;100893.50;5037022;28;45433;-41
2023/09/12 02:12:40;;;;;;;;;8.75;8.00;;;;;23.23;59.34;100894.34;5037096;28;45268;-39
2023/09/12 02:15:06;;;;;;;;;11.00;8.00;;;;;23.20;59.63;100889.34;5036600;28;47413;-39
2023/09/12 02:17:31;;;;;;;;;10.20;9.00;;;;;23.15;60.06;100880.00;5036605;28;45457;-41
2023/09/12 02:19:56;;;;;;;;;9.25;9.00;;;;;23.11;60.27;100876.06;5036759;28;45358;-39
2023/09/12 02:22:22;;;;;;;;;11.50;8.50;;;;;23.08;60.29;100868.38;5036693;28;45413;-39
2023/09/12 02:24:47;;;;;;;;;10.00;8.25;;;;;23.07;60.75;100874.88;5036594;28;46367;-39
2023/09/12 02:27:13;;;;;;;;;13.00;10.25;;;;;23.11;60.44;100869.81;5036196;28;45444;-39
2023/09/12 02:29:39;;;;;;;;;9.00;8.00;;;;;23.09;60.29;100878.22;5036808;28;45260;-40
2023/09/12 02:32:05;;;;;;;;;8.00;8.00;;;;;23.05;59.78;100879.72;5036565;28;45330;-38
2023/09/12 02:34:30;;;;;;;;;12.00;10.75;;;;;23.03;60.55;100881.81;5035900;28;47187;-40
2023/09/12 02:36:56;;;;;;;;;15.25;11.25;;;;;23.01;60.29;100880.38;5036250;28;45531;-40
2023/09/12 02:39:21;;;;;;;;;9.50;9.00;;;;;23.00;60.39;100881.41;5035525;28;45341;-41
2023/09/12 02:41:47;;;;;;;;;11.75;11.75;;;;;22.98;60.70;100873.50;5036661;28;45416;-41
2023/09/12 02:44:12;;;;;;;;;10.00;9.75;;;;;23.00;61.24;100876.81;5036246;28;46184;-39
2023/09/12 02:46:37;;;;;;;;;12.50;11.25;;;;;23.03;61.33;100880.97;5036026;28;46408;-39
2023/09/12 02:49:03;;;;;;;;;12.75;8.00;;;;;23.01;61.30;100867.66;5036115;28;45300;-40
2023/09/12 02:51:29;;;;;;;;;10.25;9.25;;;;;22.99;61.05;100869.75;5036510;28;45313;-38
2023/09/12 02:53:54;;;;;;;;;10.50;10.50;;;;;22.97;61.46;100869.16;5036022;28;46125;-39
2023/09/12 02:56:20;;;;;;;;;11.00;5.75;;;;;22.93;59.86;100869.84;5036145;28;45279;-42
2023/09/12 02:58:49;;;;;;;;;9.00;9.00;;;;;22.86;60.91;100862.53;5036333;28;45432;-40
2023/09/12 03:01:18;;;;;;;;;12.25;10.50;;;;;22.84;61.76;100863.84;5036636;28;45557;-40
2023/09/12 03:03:47;;;;;;;;;12.60;12.60;;;;;22.83;60.86;100870.28;5035708;28;45510;-40
2023/09/12 03:06:14;;;;;;;;;12.20;10.00;;;;;22.82;61.91;100868.66;5036626;28;45461;-41
2023/09/12 03:08:40;;;;;;;;;12.00;9.80;;;;;22.77;61.84;100858.47;5036702;28;45448;-47
2023/09/12 03:11:07;;;;;;;;;11.50;11.50;;;;;22.79;61.98;100864.50;5036981;28;45435;-43
2023/09/12 03:13:33;;;;;;;;;9.00;9.00;;;;;22.70;62.02;100844.16;5035145;28;46073;-41
2023/09/12 03:15:58;;;;;;;;;12.80;11.00;;;;;22.83;62.05;100862.16;5035948;28;45388;-41
2023/09/12 03:18:23;;;;;;;;;11.25;10.25;;;;;22.83;61.99;100868.41;5036419;28;45383;-41
2023/09/12 03:20:49;;;;;;;;;11.50;11.00;;;;;22.82;61.74;100864.03;5036078;28;45536;-43
2023/09/12 03:23:14;;;;;;;;;15.50;11.00;;;;;22.82;62.00;100871.34;5036076;28;47301;-40
2023/09/12 03:25:39;;;;;;;;;13.25;10.50;;;;;22.82;62.04;100874.06;5035735;28;45383;-41
2023/09/12 03:28:06;;;;;;;;;14.00;11.25;;;;;22.79;62.06;100866.38;5035878;28;45325;-41
2023/09/12 03:30:34;;;;;;;;;12.75;12.00;;;;;22.84;62.05;100874.69;5036023;28;45553;-38
2023/09/12 03:32:59;;;;;;;;;12.75;11.50;;;;;22.75;62.09;100868.69;5035483;28;45335;-39
2023/09/12 03:35:25;;;;;;;;;12.25;10.50;;;;;22.82;62.07;100885.75;5035028;28;45428;-40
2023/09/12 03:37:50;;;;;;;;;9.25;9.25;;;;;22.81;62.14;100888.69;5035818;28;45370;-37
2023/09/12 03:40:16;;;;;;;;;12.00;10.00;;;;;22.79;61.96;100882.66;5035481;28;45540;-39
2023/09/12 03:42:41;;;;;;;;;12.50;12.50;;;;;22.74;62.16;100882.50;5035395;28;47358;-42
2023/09/12 03:45:07;;;;;;;;;13.00;10.50;;;;;22.75;61.75;100887.69;5035552;28;45336;-41
2023/09/12 03:47:32;;;;;;;;;13.25;9.50;;;;;22.73;62.26;100887.09;5035210;28;45422;-40
2023/09/12 03:49:58;;;;;;;;;12.25;12.00;;;;;22.72;62.22;100892.75;5035745;28;45446;-42
2023/09/12 03:52:23;;;;;;;;;11.25;9.00;;;;;22.69;62.17;100901.31;5035211;28;46049;-41
2023/09/12 03:54:49;;;;;;;;;12.25;12.25;;;;;22.63;62.50;100895.75;5035483;28;45462;-41
2023/09/12 03:57:14;;;;;;;;;13.50;9.25;;;;;22.64;62.58;100904.69;5034591;28;45449;-45
2023/09/12 03:59:39;;;;;;;;;11.00;10.00;;;;;22.63;62.46;100909.31;5035733;28;45208;-44
2023/09/12 04:02:04;;;;;;;;;14.00;9.25;;;;;22.63;62.40;100917.44;5035365;28;45286;-40
2023/09/12 04:04:30;;;;;;;;;12.00;10.75;;;;;22.64;62.58;100910.94;5034505;28;45480;-37
2023/09/12 04:06:55;;;;;;;;;14.00;11.00;;;;;22.63;62.34;100893.03;5034998;28;47128;-41
2023/09/12 04:09:21;;;;;;;;;10.75;9.25;;;;;22.63;62.21;100889.50;5035421;28;45387;-41
2023/09/12 04:11:46;;;;;;;;;12.50;10.00;;;;;22.65;62.32;100892.81;5034638;28;46413;-43
2023/09/12 04:14:12;;;;;;;;;13.50;10.50;;;;;22.66;62.29;100886.31;5035115;28;45510;-39
2023/09/12 04:16:37;;;;;;;;;10.40;10.40;;;;;22.63;62.19;100884.91;5034930;28;45413;-41
2023/09/12 04:19:03;;;;;;;;;18.00;13.75;;;;;22.62;62.28;100883.22;5035208;28;45410;-40
2023/09/12 04:21:28;;;;;;;;;16.25;13.75;;;;;22.61;62.15;100884.28;5035160;28;46352;-40
2023/09/12 04:23:54;;;;;;;;;15.25;10.75;;;;;22.56;62.55;100880.59;5038643;28;45465;-42
2023/09/12 04:26:19;;;;;;;;;31.25;24.25;;;;;22.49;62.16;100877.91;5038458;28;45370;-42
2023/09/12 04:28:47;;;;;;;;;58.00;46.33;;;;;22.58;62.42;100894.72;5038817;28;45396;-42
2023/09/12 04:31:12;;;;;;;;;47.67;39.00;;;;;22.61;62.64;100899.72;5038441;28;45297;-43
2023/09/12 04:33:37;;;;;;;;;15.75;12.75;;;;;22.62;62.26;100899.47;5038382;28;45432;-41
2023/09/12 04:36:03;;;;;;;;;15.50;14.00;;;;;22.63;62.63;100912.00;5038289;28;45354;-41
2023/09/12 04:38:29;;;;;;;;;15.50;13.75;;;;;22.60;62.92;100914.34;5038598;28;45467;-42
2023/09/12 04:41:04;;;;;;;;;15.00;15.00;;;;;22.62;62.23;100912.22;5036691;28;48320;-40
2023/09/12 04:43:33;;;;;;;;;15.40;14.00;;;;;22.57;62.62;100912.88;5037953;28;45305;-48
2023/09/12 04:45:59;;;;;;;;;17.50;14.50;;;;;22.55;62.51;100908.75;5038402;28;45417;-41
2023/09/12 04:48:24;;;;;;;;;15.00;13.00;;;;;22.57;62.66;100912.06;5038307;28;45337;-43
2023/09/12 04:50:50;;;;;;;;;14.50;13.00;;;;;22.55;62.75;100915.00;5038105;28;46431;-45
2023/09/12 04:53:16;;;;;;;;;15.50;11.50;;;;;22.55;62.75;100923.13;5037583;28;45350;-42
2023/09/12 04:55:41;;;;;;;;;17.50;11.75;;;;;22.50;62.88;100912.13;5038180;28;45485;-43
2023/09/12 04:58:07;;;;;;;;;11.25;11.25;;;;;22.49;62.61;100913.16;5038578;28;45393;-41
2023/09/12 05:00:33;;;;;;;;;15.75;14.00;;;;;22.52;62.85;100914.59;5037833;28;45573;-40
2023/09/12 05:02:59;;;;;;;;;17.20;13.60;;;;;22.49;62.71;100905.03;5038169;28;45394;-40
2023/09/12 05:05:24;;;;;;;;;14.25;12.75;;;;;22.48;63.10;100906.09;5037852;28;45422;-40
2023/09/12 05:07:51;;;;;;;;;16.75;14.00;;;;;22.50;63.31;100912.13;5037928;28;45519;-39
2023/09/12 05:10:16;;;;;;;;;14.25;14.00;;;;;22.48;63.22;100902.53;5037942;28;47140;-41
2023/09/12 05:12:42;;;;;;;;;17.25;17.00;;;;;22.45;63.15;100897.56;5037389;28;45406;-40
2023/09/12 05:15:07;;;;;;;;;22.25;17.75;;;;;22.40;62.96;100906.34;5038071;28;45409;-41
2023/09/12 05:17:32;;;;;;;;;20.25;16.75;;;;;22.34;63.17;100910.78;5037918;28;45454;-40
2023/09/12 05:19:58;;;;;;;;;20.00;16.50;;;;;22.34;63.57;100918.09;5037549;28;47272;-41
2023/09/12 05:22:23;;;;;;;;;13.50;13.00;;;;;22.30;63.35;100928.53;5037484;28;46024;-40
2023/09/12 05:24:49;;;;;;;;;23.00;14.50;;;;;22.29;63.60;100934.16;5037712;28;45428;-40
2023/09/12 05:27:14;;;;;;;;;18.25;16.25;;;;;22.26;63.84;100943.56;5037909;28;45407;-39
2023/09/12 05:29:40;;;;;;;;;17.00;15.00;;;;;22.25;63.72;100933.78;5037388;28;47119;-38
2023/09/12 05:32:05;;;;;;;;;15.75;12.25;;;;;22.28;63.77;100929.78;5037479;28;45321;-40
2023/09/12 05:34:31;;;;;;;;;16.00;14.50;;;;;22.33;63.14;100928.09;5034969;28;45410;-38
2023/09/12 05:36:57;;;;;;;;;16.75;13.25;;;;;22.36;63.33;100934.94;5037511;28;45389;-39
2023/09/12 05:39:22;;;;;;;;;16.25;15.00;;;;;22.37;63.57;100932.00;5037333;28;46201;-38
2023/09/12 05:41:48;;;;;;;;;15.75;14.00;;;;;22.45;63.23;100936.34;5037232;28;45272;-39
2023/09/12 05:44:17;;;;;;;;;16.75;14.75;;;;;22.52;62.59;100941.72;5037474;28;45461;-39
2023/09/12 05:46:45;;;;;;;;;13.25;13.00;;;;;22.54;62.87;100932.28;5037550;28;45491;-40
2023/09/12 05:49:11;;;;;;;;;17.50;16.25;;;;;22.60;62.90;100931.44;5036988;28;45421;-39
2023/09/12 05:51:36;;;;;;;;;17.75;13.50;;;;;22.64;62.21;100916.38;5037074;28;45477;-39
2023/09/12 05:54:03;;;;;;;;;16.00;14.25;;;;;22.73;62.32;100913.38;5037150;28;45288;-40
2023/09/12 05:56:28;;;;;;;;;16.25;16.00;;;;;22.77;62.46;100911.88;5037158;28;45493;-40
2023/09/12 05:58:54;;;;;;;;;17.00;16.00;;;;;22.86;62.28;100929.53;5036939;28;46379;-39
2023/09/12 06:01:19;;;;;;;;;22.75;16.00;;;;;22.94;62.16;100934.69;5036622;28;45390;-39
2023/09/12 06:03:44;;;;;;;;;17.00;16.50;;;;;23.06;61.59;100934.81;5036893;28;45314;-39
2023/09/12 06:06:10;;;;;;;;;15.00;15.00;;;;;23.09;61.59;100935.19;5037088;28;45500;-40
2023/09/12 06:08:35;;;;;;;;;14.75;14.75;;;;;23.19;61.33;100933.84;5036427;28;45338;-42
2023/09/12 06:11:00;;;;;;;;;18.00;17.50;;;;;23.28;60.57;100940.63;5036905;28;46013;-38
2023/09/12 06:13:25;;;;;;;;;21.75;14.75;;;;;23.39;60.70;100929.84;5036819;28;45358;-42
2023/09/12 06:15:51;;;;;;;;;17.50;14.50;;;;;23.45;60.29;100933.53;5037154;28;45240;-41
2023/09/12 06:18:16;;;;;;;;;19.50;18.25;;;;;23.59;60.28;100948.59;5036748;28;45361;-43
2023/09/12 06:20:42;;;;;;;;;16.75;14.75;;;;;23.63;60.32;100949.78;5036394;28;45220;-39
2023/09/12 06:23:07;;;;;;;;;21.00;16.25;;;;;23.72;59.83;100950.34;5036774;28;45342;-40
2023/09/12 06:25:33;;;;;;;;;14.25;13.50;;;;;23.77;59.89;100945.06;5035405;28;45353;-39
2023/09/12 06:27:59;;;;;;;;;17.50;15.00;;;;;23.82;59.62;100953.34;5036452;28;45426;-39
2023/09/12 06:30:25;;;;;;;;;18.00;16.50;;;;;23.87;59.58;100955.38;5036313;28;45487;-44
2023/09/12 06:32:50;;;;;;;;;18.50;15.75;;;;;23.92;59.18;100960.94;5036230;28;45338;-39
2023/09/12 06:35:15;;;;;;;;;17.50;17.50;;;;;23.91;58.98;100956.59;5036497;28;45433;-38
2023/09/12 06:37:41;;;;;;;;;15.25;13.50;;;;;23.93;59.12;100957.16;5035934;28;46198;-39
2023/09/12 06:40:07;;;;;;;;;21.25;18.75;;;;;23.96;58.64;100951.28;5036245;28;45265;-40
2023/09/12 06:42:32;;;;;;;;;15.40;14.00;;;;;24.01;58.75;100951.41;5036356;28;45303;-39
2023/09/12 06:44:58;;;;;;;;;21.25;17.50;;;;;24.07;58.44;100950.50;5036114;28;45490;-39
2023/09/12 06:47:23;;;;;;;;;19.25;16.25;;;;;24.18;58.63;100946.16;5036041;28;47346;-37
2023/09/12 06:49:49;;;;;;;;;16.75;13.50;;;;;24.33;58.09;100937.59;5036325;28;45409;-38
2023/09/12 06:52:14;;;;;;;;;21.25;19.00;;;;;24.39;57.32;100948.38;5036396;28;45393;-39
2023/09/12 06:54:39;;;;;;;;;20.00;17.00;;;;;24.43;57.24;100935.13;5036448;28;45255;-40
2023/09/12 06:57:05;;;;;;;;;19.00;16.50;;;;;24.51;57.02;100940.25;5036263;28;46367;-38
2023/09/12 06:59:30;;;;;;;;;17.25;16.00;;;;;24.63;56.66;100934.81;5036115;28;45416;-38
2023/09/12 07:01:55;;;;;;;;;19.75;19.00;;;;;24.78;56.67;100940.63;5036259;28;45923;-39
2023/09/12 07:04:21;;;;;;;;;20.25;14.75;;;;;24.78;55.98;100923.50;5036594;28;45327;-37
2023/09/12 07:06:47;;;;;;;;;20.50;16.00;;;;;24.88;55.80;100946.31;5035878;28;46034;-38
2023/09/12 07:09:14;;;;;;;;;22.50;19.25;;;;;24.78;56.30;100923.50;5035867;28;45563;-41
2023/09/12 07:11:41;;;;;;;;;20.60;17.80;;;;;24.79;56.45;100944.19;5036146;28;45449;-39
2023/09/12 07:14:06;;;;;;;;;24.75;19.75;;;;;24.83;56.79;100948.91;5036388;28;45412;-40
2023/09/12 07:16:33;;;;;;;;;22.75;15.75;;;;;24.95;56.30;100943.47;5035834;28;46188;-49
2023/09/12 07:18:58;;;;;;;;;23.40;18.20;;;;;25.06;56.07;100952.69;5035911;28;45282;-47
2023/09/12 07:21:24;;;;;;;;;25.25;21.75;;;;;25.05;55.70;100937.44;5035743;28;45361;-38
2023/09/12 07:23:49;;;;;;;;;22.50;19.75;;;;;25.27;55.47;100952.13;5036365;28;45494;-41
2023/09/12 07:26:15;;;;;;;;;18.75;16.75;;;;;25.29;55.02;100962.78;5035788;28;46054;-45
2023/09/12 07:28:41;;;;;;;;;29.75;22.00;;;;;25.23;55.27;100963.72;5035727;28;45202;-39
2023/09/12 07:31:06;;;;;;;;;20.75;20.75;;;;;25.29;54.96;100966.34;5035878;28;45390;-40
2023/09/12 07:33:32;;;;;;;;;21.75;18.00;;;;;25.43;55.23;100968.78;5035735;28;45480;-41
2023/09/12 07:35:59;;;;;;;;;18.75;18.25;;;;;25.52;54.33;100967.34;5035780;28;46138;-38
2023/09/12 07:38:25;;;;;;;;;18.40;15.40;;;;;25.49;54.56;100971.38;5035383;28;45397;-41
2023/09/12 07:40:50;;;;;;;;;20.50;15.75;;;;;25.49;54.42;100968.66;5036078;28;45369;-39
2023/09/12 07:43:16;;;;;;;;;17.75;17.25;;;;;25.36;54.41;100947.13;5035961;28;45333;-39
2023/09/12 07:45:41;;;;;;;;;19.00;15.50;;;;;25.45;54.24;100962.06;5035557;28;46127;-39
2023/09/12 07:48:08;;;;;;;;;16.00;15.25;;;;;25.43;53.96;100966.91;5035697;28;45326;-39
2023/09/12 07:50:34;;;;;;;;;20.60;18.20;;;;;25.36;54.45;100969.72;5035669;28;45446;-42
2023/09/12 07:52:59;;;;;;;;;19.50;17.25;;;;;25.32;54.45;100967.72;5035915;28;45315;-37
2023/09/12 07:55:25;;;;;;;;;22.50;18.00;;;;;25.21;54.77;100957.69;5034028;28;47268;-38
2023/09/12 07:57:51;;;;;;;;;20.00;18.25;;;;;24.99;54.78;100951.97;5038022;28;45359;-39
2023/09/12 08:00:16;;;;;;;;;21.00;20.50;;;;;24.96;55.27;100964.19;5039200;28;45326;-39
2023/09/12 08:02:42;;;;;;;;;19.75;12.25;;;;;24.85;55.76;100957.66;5039012;28;45430;-40
2023/09/12 08:05:08;;;;;;;;;18.50;16.25;;;;;24.87;55.30;100963.72;5037310;28;45635;-42
2023/09/12 08:07:34;;;;;;;;;17.75;17.25;;;;;24.86;55.76;100959.34;5038436;28;45308;-40
2023/09/12 08:10:00;;;;;;;;;16.60;14.40;;;;;24.92;55.83;100959.44;5038946;28;45504;-43
2023/09/12 08:12:27;;;;;;;;;16.25;16.25;;;;;24.93;55.79;100964.66;5039243;28;45311;-45
2023/09/12 08:14:53;;;;;;;;;19.40;14.80;;;;;24.94;55.67;100966.28;5038547;28;47034;-40
2023/09/12 08:17:19;;;;;;;;;16.80;15.20;;;;;24.97;55.12;100971.28;5038527;28;45445;-37
2023/09/12 08:19:45;;;;;;;;;15.25;14.25;;;;;25.01;55.42;100977.06;5039021;28;45302;-45
2023/09/12 08:22:11;;;;;;;;;20.25;17.25;;;;;25.05;55.33;100986.44;5038684;28;45613;-41
2023/09/12 08:24:38;;;;;;;;;20.60;16.60;;;;;25.10;54.89;100990.13;5038539;28;46242;-49
2023/09/12 08:27:05;;;;;;;;;18.40;12.40;;;;;25.18;54.95;100983.50;5038469;28;45444;-40
2023/09/12 08:29:31;;;;;;;;;18.80;14.80;;;;;25.26;54.73;100982.31;5037145;28;45403;-39
2023/09/12 08:31:58;;;;;;;;;14.20;14.20;;;;;25.38;54.71;100983.13;5037975;28;45395;-39
2023/09/12 08:34:23;;;;;;;;;18.80;15.40;;;;;25.38;54.11;100967.63;5037743;28;45335;-48
2023/09/12 08:36:50;;;;;;;;;24.00;15.25;;;;;25.55;53.98;100973.16;5036715;28;45616;-39
2023/09/12 08:39:18;;;;;;;;;16.40;12.40;;;;;25.59;53.79;100977.03;5042457;28;45358;-39
2023/09/12 08:41:46;;;;;;;;;17.80;14.00;;;;;25.57;53.98;100995.50;5043082;28;45475;-39
2023/09/12 08:44:12;;;;;;;;;15.20;11.40;;;;;25.17;53.62;100940.19;5044203;28;46086;-37
2023/09/12 08:46:41;;;;;;;;;21.40;16.40;;;;;25.41;53.95;100976.34;5052692;28;45476;-41
2023/09/12 08:49:09;;;;;;;;;13.80;12.60;;;;;25.39;53.90;100990.22;5055010;28;45437;-40
2023/09/12 08:51:35;;;;;;;;;23.25;23.00;;;;;25.29;53.76;100988.13;5044661;28;45553;-39
2023/09/12 08:54:03;;;;;;;;;14.40;13.00;;;;;25.30;53.93;100997.09;5040944;28;45608;-38
2023/09/12 08:56:30;;;;;;;;;14.00;11.80;;;;;25.25;54.24;100991.56;5034923;28;45556;-39
2023/09/12 08:58:56;;;;;;;;;14.20;12.80;;;;;25.18;54.42;100991.66;5048264;28;45445;-37
2023/09/12 09:01:22;;;;;;;;;12.60;11.80;;;;;25.15;54.46;100989.41;5051568;28;45480;-39
2023/09/12 09:03:48;;;;;;;;;13.50;11.50;;;;;25.07;54.52;100997.91;5054176;28;46836;-39
2023/09/12 09:06:16;;;;;;;;;13.00;11.60;;;;;25.02;54.73;100997.78;5042415;28;45542;-38
2023/09/12 09:08:42;;;;;;;;;15.00;11.00;;;;;24.93;54.97;101002.75;5054513;28;45660;-38
2023/09/12 09:11:08;;;;;;;;;10.00;9.40;;;;;24.79;54.94;100995.88;5049394;28;45508;-39
2023/09/12 09:13:33;;;;;;;;;12.75;12.75;;;;;24.69;55.41;101001.06;5034350;28;45818;-39
2023/09/12 09:16:21;;;;;;;;;11.75;11.75;;;;;24.56;55.28;100997.47;5045293;28;45446;-39
2023/09/12 09:19:09;;;;;;;;;13.40;12.20;;;;;24.50;55.53;100992.97;5040934;28;45454;-38
2023/09/12 09:21:35;;;;;;;;;17.40;13.40;;;;;24.44;56.00;100988.50;5041595;28;45608;-45
2023/09/12 09:24:06;;;;;;;;;13.80;13.20;;;;;24.43;55.83;100991.41;5036001;28;46392;-39
2023/09/12 09:26:45;;;;;;;;;17.60;10.20;;;;;24.43;56.12;100992.25;5049795;28;46396;-39
2023/09/12 09:29:17;;;;;;;;;16.40;12.00;;;;;24.43;56.13;100980.53;5034385;28;45443;-41
2023/09/12 09:31:44;;;;;;;;;10.80;8.80;;;;;24.44;56.30;100988.50;5054439;28;45940;-38
2023/09/12 09:34:15;;;;;;;;;17.80;13.60;;;;;24.37;55.85;100991.28;5053988;28;46357;-39
2023/09/12 09:36:42;;;;;;;;;14.60;13.80;;;;;24.30;56.35;100986.97;5054270;28;45365;-40
2023/09/12 09:39:09;;;;;;;;;9.80;9.80;;;;;24.24;56.99;100990.63;5054118;28;45519;-38
2023/09/12 09:41:34;;;;;;;;;12.80;9.80;;;;;24.19;57.11;100995.91;5048739;28;45433;-39
2023/09/12 09:44:00;;;;;;;;;16.25;13.25;;;;;24.14;57.31;100993.88;5049649;28;47176;-37
2023/09/12 09:46:26;;;;;;;;;34.00;25.00;;;;;24.14;57.59;101004.75;5043740;28;45403;-39
2023/09/12 09:48:52;;;;;;;;;45.75;30.75;;;;;24.11;58.33;101011.50;5040480;28;45622;-39
2023/09/12 09:51:18;;;;;;;;;26.00;17.50;;;;;24.11;59.02;101021.53;5048161;28;45510;-40
2023/09/12 09:53:43;;;;;;;;;19.60;15.00;;;;;24.10;60.40;101014.44;5053368;28;46604;-41
2023/09/12 09:56:15;;;;;;;;;22.00;16.00;;;;;24.00;60.55;101000.56;5053512;28;45559;-40
2023/09/12 09:58:48;;;;;;;;;22.20;16.40;;;;;24.08;61.76;101020.09;5051773;28;45570;-39
2023/09/12 10:01:18;;;;;;;;;17.50;13.75;;;;;24.07;61.83;101032.03;5052790;28;45593;-38
2023/09/12 10:03:46;;;;;;;;;17.40;14.60;;;;;24.04;61.80;101037.94;5053239;28;45788;-39
2023/09/12 10:06:12;;;;;;;;;17.60;15.20;;;;;24.01;61.59;101037.53;5040596;28;45453;-38
2023/09/12 10:08:40;;;;;;;;;16.75;15.00;;;;;24.03;60.99;101049.88;5033666;28;45734;-38
2023/09/12 10:11:07;;;;;;;;;16.75;16.75;;;;;24.00;61.41;101047.59;5034301;28;45409;-40
2023/09/12 10:13:35;;;;;;;;;18.25;17.00;;;;;23.95;61.79;101054.78;5033541;28;47391;-39
2023/09/12 10:16:04;;;;;;;;;17.60;15.40;;;;;23.97;62.48;101058.91;5046394;28;45484;-42
2023/09/12 10:18:35;;;;;;;;;23.40;19.40;;;;;23.94;62.97;101062.09;5036353;28;45450;-39
2023/09/12 10:21:23;;;;;;;;;18.50;16.00;;;;;23.85;62.74;101069.72;5038367;28;45528;-37
2023/09/12 10:23:50;;;;;;;;;28.75;19.00;;;;;23.82;63.09;101072.06;5048746;28;47384;-39
2023/09/12 10:26:17;;;;;;;;;20.00;18.00;;;;;23.77;63.19;101064.59;5046918;28;45543;-37
2023/09/12 10:28:43;;;;;;;;;22.50;20.25;;;;;23.78;63.33;101071.69;5047826;28;45511;-58
2023/09/12 10:31:11;;;;;;;;;24.75;19.25;;;;;23.79;63.30;101083.38;5040030;28;45433;-49
2023/09/12 10:33:37;;;;;;;;;22.25;19.75;;;;;23.80;63.40;101063.28;5052436;28;46261;-45
2023/09/12 10:36:08;;;;;;;;;25.50;23.50;;;;;23.81;63.70;101054.94;5052733;28;45430;-52
2023/09/12 10:38:40;;;;;;;;;25.60;18.20;;;;;23.72;64.01;101037.25;5035168;28;45505;-43
2023/09/12 10:41:08;;;;;;;;;28.75;23.25;;;;;23.74;64.33;101026.19;5033444;28;45442;-47
2023/09/12 10:43:35;;;;;;;;;24.50;19.50;;;;;23.84;64.06;101042.78;5045257;28;45585;-39
2023/09/12 10:46:03;;;;;;;;;30.60;21.20;;;;;23.92;64.73;101047.06;5052331;28;45491;-39
2023/09/12 10:48:29;;;;;;;;;22.50;18.75;;;;;23.95;64.43;101039.31;5041990;28;45495;-37
2023/09/12 10:50:58;;;;;;;;;18.25;16.75;;;;;23.97;64.50;101039.88;5040569;28;45436;-38
2023/09/12 10:53:27;;;;;;;;;17.50;16.00;;;;;24.00;64.45;101033.19;5045462;28;46177;-41
2023/09/12 10:56:19;;;;;;;;;22.60;17.80;;;;;24.01;64.01;101029.41;5052323;28;45455;-39
2023/09/12 10:59:03;;;;;;;;;17.60;16.80;;;;;24.06;64.12;101024.09;5050397;28;45522;-43
2023/09/12 11:01:30;;;;;;;;;17.25;17.25;;;;;24.09;64.60;101023.66;5034995;28;45492;-40
2023/09/12 11:03:55;;;;;;;;;21.00;16.50;;;;;24.09;64.24;101027.19;5036025;28;46175;-44
2023/09/12 11:06:28;;;;;;;;;16.00;15.25;;;;;24.09;64.57;101023.66;5052309;28;45575;-41
2023/09/12 11:09:18;;;;;;;;;16.80;14.80;;;;;24.05;64.13;101034.16;5031617;28;45397;-38
2023/09/12 11:11:47;;;;;;;;;25.75;20.75;;;;;24.06;64.39;101030.38;5051387;28;45360;-39